Temp: 9.8°C   Baro: 991.5mb
  Wind: 4.0mph   Dir: ESE (110°)
  Rain: 3.6mm (0.0mm/hr)
  Solar: 0W/m2  Hum: 88%
 
Bath Spa Weather Station Historical Data
Daily Summary for August 31, 2019 Units:  Both    English   Metric
Daily Weekly Monthly Yearly Custom
  High: Low: Average:
Temperature: 50.5 °F /  10.3 °C 44.4 °F /  6.9 °C 47.7 °F /  8.7 °C
Dew Point: 49.1 °F /  9.5 °C 42.8 °F /  6 °C 45.7 °F /  7.6 °C
Humidity: 95% 91% 93%
Wind Speed: 5.9mph /  9.5km/h - 3mph /  4.8km/h
Wind Gust: 15mph /  24.1km/h - -
Wind- - ESE
Pressure: 30.10 in /  1019.2 hPa 29.84 in /  1010.4 hPa -
Precipitation: 0.19 in /  4.83 mm    
Historical Graphs
 
 
Tabular Data for August 31, 2019
Time Temperature Dew Point Pressure Wind Wind Speed Wind Gust Humidity Rainfall Rate (Hourly) solar
00:04 45.9 °F /  7.7 °C 43.4 °F /  6.3 °C 30.10in /  1019.2hPa ESE 4.5mph /  7.2km/h 13mph /  20.9km/h 91% 0.03in /  0.76mm 0 W/m2
00:09 45.9 °F /  7.7 °C 43.3 °F /  6.3 °C 30.10in /  1019.2hPa ESE 5mph /  8km/h 12mph /  19.3km/h 91% 0.03in /  0.76mm 0 W/m2
00:14 45.9 °F /  7.7 °C 43.4 °F /  6.3 °C 30.09in /  1018.8hPa East 4.4mph /  7.1km/h 13mph /  20.9km/h 91% 0.03in /  0.76mm 0 W/m2
00:19 46 °F /  7.8 °C 43.6 °F /  6.4 °C 30.09in /  1018.8hPa East 3.9mph /  6.3km/h 13mph /  20.9km/h 91.1% 0.03in /  0.76mm 0 W/m2
00:24 46 °F /  7.8 °C 43.6 °F /  6.4 °C 30.09in /  1018.8hPa ESE 3.7mph /  6km/h 9mph /  14.5km/h 91.3% 0.03in /  0.76mm 0 W/m2
00:29 45.9 °F /  7.7 °C 43.8 °F /  6.6 °C 30.09in /  1018.8hPa East 3.4mph /  5.5km/h 10mph /  16.1km/h 92% 0.03in /  0.76mm 0 W/m2
00:34 45.9 °F /  7.7 °C 43.7 °F /  6.5 °C 30.09in /  1018.8hPa East 4.6mph /  7.4km/h 10mph /  16.1km/h 92% 0.03in /  0.76mm 0 W/m2
00:39 45.9 °F /  7.7 °C 43.7 °F /  6.5 °C 30.09in /  1018.8hPa East 4.5mph /  7.2km/h 12mph /  19.3km/h 92% 0.02in /  0.51mm 0 W/m2
00:44 45.9 °F /  7.7 °C 43.7 °F /  6.5 °C 30.09in /  1018.8hPa East 3.6mph /  5.8km/h 12mph /  19.3km/h 92% 0.02in /  0.51mm 0 W/m2
00:49 45.9 °F /  7.7 °C 43.7 °F /  6.5 °C 30.09in /  1018.8hPa ESE 2.3mph /  3.7km/h 10mph /  16.1km/h 92% 0.02in /  0.51mm 0 W/m2
00:54 45.9 °F /  7.7 °C 43.7 °F /  6.5 °C 30.09in /  1018.8hPa ESE 3.5mph /  5.6km/h 10mph /  16.1km/h 92% 0.02in /  0.51mm 0 W/m2
00:59 45.9 °F /  7.7 °C 43.7 °F /  6.5 °C 30.09in /  1018.8hPa East 4.8mph /  7.7km/h 12mph /  19.3km/h 92% 0.02in /  0.51mm 0 W/m2
01:04 45.9 °F /  7.7 °C 43.7 °F /  6.5 °C 30.09in /  1018.8hPa East 4.9mph /  7.9km/h 13mph /  20.9km/h 92% 0.03in /  0.76mm 0 W/m2
01:09 45.9 °F /  7.7 °C 43.7 °F /  6.5 °C 30.09in /  1018.8hPa East 2.9mph /  4.7km/h 8mph /  12.9km/h 92% 0.03in /  0.76mm 0 W/m2
01:14 45.9 °F /  7.7 °C 43.7 °F /  6.5 °C 30.09in /  1018.8hPa ESE 3.1mph /  5km/h 8mph /  12.9km/h 92% 0.02in /  0.51mm 0 W/m2
01:19 45.9 °F /  7.7 °C 43.7 °F /  6.5 °C 30.09in /  1018.8hPa East 4mph /  6.4km/h 9mph /  14.5km/h 92% 0.03in /  0.76mm 0 W/m2
01:24 45.9 °F /  7.7 °C 43.7 °F /  6.5 °C 30.08in /  1018.5hPa East 4.1mph /  6.6km/h 9mph /  14.5km/h 92% 0.03in /  0.76mm 0 W/m2
01:29 45.9 °F /  7.7 °C 43.7 °F /  6.5 °C 30.08in /  1018.5hPa East 3.7mph /  6km/h 11mph /  17.7km/h 92% 0.02in /  0.51mm 0 W/m2
01:34 45.9 °F /  7.7 °C 43.7 °F /  6.5 °C 30.08in /  1018.5hPa East 3.8mph /  6.1km/h 14mph /  22.5km/h 92% 0.02in /  0.51mm 0 W/m2
01:39 45.9 °F /  7.7 °C 43.7 °F /  6.5 °C 30.08in /  1018.5hPa East 2.7mph /  4.3km/h 14mph /  22.5km/h 92% 0.03in /  0.76mm 0 W/m2
01:44 45.9 °F /  7.7 °C 43.7 °F /  6.5 °C 30.08in /  1018.5hPa East 4mph /  6.4km/h 10mph /  16.1km/h 92% 0.03in /  0.76mm 0 W/m2
01:49 45.9 °F /  7.7 °C 43.7 °F /  6.5 °C 30.07in /  1018.2hPa East 3.2mph /  5.1km/h 10mph /  16.1km/h 92.2% 0.03in /  0.76mm 0 W/m2
01:54 45.9 °F /  7.7 °C 43.7 °F /  6.5 °C 30.07in /  1018.2hPa ESE 3.2mph /  5.1km/h 15mph /  24.1km/h 92% 0.03in /  0.76mm 0 W/m2
01:59 45.9 °F /  7.7 °C 43.7 °F /  6.5 °C 30.07in /  1018.2hPa East 4mph /  6.4km/h 13mph /  20.9km/h 92% 0.03in /  0.76mm 0 W/m2
02:04 45.9 °F /  7.7 °C 43.7 °F /  6.5 °C 30.07in /  1018.2hPa East 3.6mph /  5.8km/h 11mph /  17.7km/h 92% 0.04in /  1.02mm 0 W/m2
02:09 45.9 °F /  7.7 °C 43.8 °F /  6.6 °C 30.07in /  1018.2hPa East 2mph /  3.2km/h 9mph /  14.5km/h 92.6% 0.04in /  1.02mm 0 W/m2
02:14 45.9 °F /  7.7 °C 43.9 °F /  6.6 °C 30.07in /  1018.2hPa East 1.8mph /  2.9km/h 7mph /  11.3km/h 93% 0.04in /  1.02mm 0 W/m2
02:19 45.8 °F /  7.7 °C 43.8 °F /  6.6 °C 30.07in /  1018.2hPa East 4.4mph /  7.1km/h 10mph /  16.1km/h 93% 0.05in /  1.27mm 0 W/m2
02:24 45.7 °F /  7.6 °C 43.7 °F /  6.5 °C 30.06in /  1017.8hPa ESE 3.2mph /  5.1km/h 10mph /  16.1km/h 93% 0.04in /  1.02mm 0 W/m2
02:29 45.7 °F /  7.6 °C 43.7 °F /  6.5 °C 30.06in /  1017.8hPa ESE 3.7mph /  6km/h 13mph /  20.9km/h 93% 0.04in /  1.02mm 0 W/m2
02:34 45.7 °F /  7.6 °C 43.7 °F /  6.5 °C 30.06in /  1017.8hPa ESE 2.6mph /  4.2km/h 13mph /  20.9km/h 93% 0.04in /  1.02mm 0 W/m2
02:39 45.7 °F /  7.6 °C 43.7 °F /  6.5 °C 30.06in /  1017.8hPa East 3mph /  4.8km/h 10mph /  16.1km/h 93% 0.05in /  1.27mm 0 W/m2
02:44 45.7 °F /  7.6 °C 43.7 °F /  6.5 °C 30.06in /  1017.8hPa ESE 3.8mph /  6.1km/h 9mph /  14.5km/h 93% 0.04in /  1.02mm 0 W/m2
02:49 45.7 °F /  7.6 °C 43.7 °F /  6.5 °C 30.06in /  1017.8hPa East 5mph /  8km/h 13mph /  20.9km/h 93% 0.04in /  1.02mm 0 W/m2
02:54 45.7 °F /  7.6 °C 43.7 °F /  6.5 °C 30.06in /  1017.8hPa East 5.1mph /  8.2km/h 13mph /  20.9km/h 93% 0.04in /  1.02mm 0 W/m2
02:59 45.7 °F /  7.6 °C 43.7 °F /  6.5 °C 30.06in /  1017.8hPa East 3.9mph /  6.3km/h 14mph /  22.5km/h 93% 0.04in /  1.02mm 0 W/m2
03:04 45.7 °F /  7.6 °C 43.7 °F /  6.5 °C 30.06in /  1017.8hPa ESE 4.1mph /  6.6km/h 14mph /  22.5km/h 93% 0.04in /  1.02mm 0 W/m2
03:09 45.7 °F /  7.6 °C 43.7 °F /  6.5 °C 30.06in /  1017.8hPa East 2.2mph /  3.5km/h 9mph /  14.5km/h 93% 0.03in /  0.76mm 0 W/m2
03:14 45.6 °F /  7.6 °C 43.6 °F /  6.4 °C 30.06in /  1017.8hPa ESE 4.9mph /  7.9km/h 13mph /  20.9km/h 93% 0.02in /  0.51mm 0 W/m2
03:19 45.5 °F /  7.5 °C 43.5 °F /  6.4 °C 30.06in /  1017.8hPa ESE 5.2mph /  8.4km/h 14mph /  22.5km/h 93% 0.02in /  0.51mm 0 W/m2
03:24 45.6 °F /  7.6 °C 43.6 °F /  6.4 °C 30.06in /  1017.8hPa East 2.9mph /  4.7km/h 9mph /  14.5km/h 93% 0.02in /  0.51mm 0 W/m2
03:29 45.7 °F /  7.6 °C 43.7 °F /  6.5 °C 30.06in /  1017.8hPa SE 2.3mph /  3.7km/h 10mph /  16.1km/h 93% 0.02in /  0.51mm 0 W/m2
03:34 45.6 °F /  7.6 °C 43.6 °F /  6.4 °C 30.06in /  1017.8hPa ESE 2.5mph /  4km/h 8mph /  12.9km/h 93% 0.02in /  0.51mm 0 W/m2
03:39 45.6 °F /  7.6 °C 43.6 °F /  6.4 °C 30.06in /  1017.8hPa ESE 2.3mph /  3.7km/h 8mph /  12.9km/h 93% 0.02in /  0.51mm 0 W/m2
03:44 45.6 °F /  7.6 °C 43.6 °F /  6.4 °C 30.06in /  1017.8hPa ESE 3mph /  4.8km/h 8mph /  12.9km/h 93% 0.02in /  0.51mm 0 W/m2
03:49 45.5 °F /  7.5 °C 43.5 °F /  6.4 °C 30.06in /  1017.8hPa East 3.7mph /  6km/h 9mph /  14.5km/h 93% 0.02in /  0.51mm 0 W/m2
03:54 45.5 °F /  7.5 °C 43.5 °F /  6.4 °C 30.06in /  1017.8hPa East 3.3mph /  5.3km/h 9mph /  14.5km/h 93% 0.02in /  0.51mm 0 W/m2
03:59 45.6 °F /  7.6 °C 43.6 °F /  6.4 °C 30.06in /  1017.8hPa East 4mph /  6.4km/h 9mph /  14.5km/h 93% 0.02in /  0.51mm 0 W/m2
04:04 45.5 °F /  7.5 °C 43.5 °F /  6.4 °C 30.06in /  1017.8hPa East 3.5mph /  5.6km/h 9mph /  14.5km/h 93% 0.01in /  0.25mm 0 W/m2
04:09 45.5 °F /  7.5 °C 43.5 °F /  6.4 °C 30.06in /  1017.8hPa East 3.7mph /  6km/h 9mph /  14.5km/h 93% 0.01in /  0.25mm 0 W/m2
04:14 45.5 °F /  7.5 °C 43.5 °F /  6.4 °C 30.06in /  1017.8hPa East 3.1mph /  5km/h 9mph /  14.5km/h 93% 0.01in /  0.25mm 0 W/m2
04:19 45.4 °F /  7.4 °C 43.4 °F /  6.3 °C 30.06in /  1017.8hPa East 4.2mph /  6.8km/h 9mph /  14.5km/h 93% 0.01in /  0.25mm 0 W/m2
04:24 45.4 °F /  7.4 °C 43.4 °F /  6.3 °C 30.06in /  1017.8hPa East 4.1mph /  6.6km/h 9mph /  14.5km/h 93% 0.02in /  0.51mm 0 W/m2
04:29 45.4 °F /  7.4 °C 43.4 °F /  6.3 °C 30.06in /  1017.8hPa East 2.7mph /  4.3km/h 10mph /  16.1km/h 93% 0.02in /  0.51mm 0 W/m2
04:34 45.4 °F /  7.4 °C 43.4 °F /  6.3 °C 30.06in /  1017.8hPa East 3.7mph /  6km/h 10mph /  16.1km/h 93% 0.02in /  0.51mm 0 W/m2
04:39 45.3 °F /  7.4 °C 43.3 °F /  6.3 °C 30.06in /  1017.8hPa ESE 2.6mph /  4.2km/h 9mph /  14.5km/h 93% 0.02in /  0.51mm 0 W/m2
04:44 45.3 °F /  7.4 °C 43.3 °F /  6.3 °C 30.06in /  1017.8hPa ESE 3.2mph /  5.1km/h 9mph /  14.5km/h 93% 0.01in /  0.25mm 0 W/m2
04:49 45.3 °F /  7.4 °C 43.3 °F /  6.3 °C 30.06in /  1017.8hPa East 4.3mph /  6.9km/h 11mph /  17.7km/h 93% 0.01in /  0.25mm 0 W/m2
04:54 45.3 °F /  7.4 °C 43.3 °F /  6.3 °C 30.06in /  1017.8hPa East 3.3mph /  5.3km/h 11mph /  17.7km/h 93% 0.01in /  0.25mm 0 W/m2
04:59 45.3 °F /  7.4 °C 43.3 °F /  6.3 °C 30.06in /  1017.8hPa East 2.2mph /  3.5km/h 7mph /  11.3km/h 93% 0.01in /  0.25mm 0 W/m2
05:04 45.3 °F /  7.4 °C 43.3 °F /  6.3 °C 30.06in /  1017.8hPa ESE 3.8mph /  6.1km/h 10mph /  16.1km/h 93% 0.01in /  0.25mm 0 W/m2
05:09 45.3 °F /  7.4 °C 43.3 °F /  6.3 °C 30.06in /  1017.8hPa ESE 2.8mph /  4.5km/h 10mph /  16.1km/h 93% 0.01in /  0.25mm 0 W/m2
05:14 45.3 °F /  7.4 °C 43.3 °F /  6.3 °C 30.06in /  1017.8hPa East 4.7mph /  7.6km/h 10mph /  16.1km/h 93% 0.01in /  0.25mm 0 W/m2
05:19 45.3 °F /  7.4 °C 43.3 °F /  6.3 °C 30.06in /  1017.8hPa East 3.5mph /  5.6km/h 9mph /  14.5km/h 93% 0.01in /  0.25mm 0 W/m2
05:24 45.3 °F /  7.4 °C 43.3 °F /  6.3 °C 30.06in /  1017.8hPa East 4.6mph /  7.4km/h 10mph /  16.1km/h 93% 0.01in /  0.25mm 0 W/m2
05:29 45.3 °F /  7.4 °C 43.6 °F /  6.4 °C 30.06in /  1017.8hPa East 3.6mph /  5.8km/h 10mph /  16.1km/h 93.7% 0.01in /  0.25mm 0 W/m2
05:34 45.3 °F /  7.4 °C 43.5 °F /  6.4 °C 30.06in /  1017.8hPa East 3.9mph /  6.3km/h 9mph /  14.5km/h 93.7% 0.01in /  0.25mm 0 W/m2
05:39 45.1 °F /  7.3 °C 43.5 °F /  6.4 °C 30.06in /  1017.8hPa ESE 3.1mph /  5km/h 9mph /  14.5km/h 94% 0.01in /  0.25mm 0 W/m2
05:44 45.1 °F /  7.3 °C 43.5 °F /  6.4 °C 30.06in /  1017.8hPa ESE 3.5mph /  5.6km/h 10mph /  16.1km/h 94% 0.01in /  0.25mm 0 W/m2
05:49 45.1 °F /  7.3 °C 43.5 °F /  6.4 °C 30.06in /  1017.8hPa ESE 3.8mph /  6.1km/h 9mph /  14.5km/h 94% 0.01in /  0.25mm 0 W/m2
05:54 45.1 °F /  7.3 °C 43.4 °F /  6.3 °C 30.06in /  1017.8hPa East 4.4mph /  7.1km/h 8mph /  12.9km/h 93.6% 0.01in /  0.25mm 0 W/m2
05:59 45 °F /  7.2 °C 43.1 °F /  6.2 °C 30.05in /  1017.5hPa East 3.6mph /  5.8km/h 9mph /  14.5km/h 93% 0.01in /  0.25mm 0 W/m2
06:04 45 °F /  7.2 °C 43 °F /  6.1 °C 30.06in /  1017.8hPa East 3.2mph /  5.1km/h 10mph /  16.1km/h 93% 0.01in /  0.25mm 0 W/m2
06:09 45 °F /  7.2 °C 43 °F /  6.1 °C 30.06in /  1017.8hPa East 4.5mph /  7.2km/h 11mph /  17.7km/h 93% 0.01in /  0.25mm 0 W/m2
06:14 45 °F /  7.2 °C 43 °F /  6.1 °C 30.06in /  1017.8hPa East 5.1mph /  8.2km/h 11mph /  17.7km/h 93.1% 0.01in /  0.25mm 0 W/m2
06:19 44.8 °F /  7.1 °C 43 °F /  6.1 °C 30.06in /  1017.8hPa ESE 5.3mph /  8.5km/h 11mph /  17.7km/h 93.6% 0.01in /  0.25mm 0 W/m2
06:24 44.8 °F /  7.1 °C 43.2 °F /  6.2 °C 30.06in /  1017.8hPa East 3.9mph /  6.3km/h 12mph /  19.3km/h 94% 0.01in /  0.25mm 0 W/m2
06:29 44.8 °F /  7.1 °C 43.2 °F /  6.2 °C 30.06in /  1017.8hPa East 4.5mph /  7.2km/h 12mph /  19.3km/h 94% 0.00in /  0mm 0 W/m2
06:34 44.6 °F /  7 °C 43 °F /  6.1 °C 30.06in /  1017.8hPa ESE 5.5mph /  8.9km/h 9mph /  14.5km/h 94% 0.00in /  0mm 0 W/m2
06:39 44.6 °F /  7 °C 43 °F /  6.1 °C 30.06in /  1017.8hPa East 4.2mph /  6.8km/h 9mph /  14.5km/h 94% 0.00in /  0mm 0 W/m2
06:44 44.6 °F /  7 °C 43 °F /  6.1 °C 30.06in /  1017.8hPa East 4.5mph /  7.2km/h 12mph /  19.3km/h 94% 0.00in /  0mm 0 W/m2
06:49 44.4 °F /  6.9 °C 42.8 °F /  6 °C 30.06in /  1017.8hPa ESE 5.8mph /  9.3km/h 11mph /  17.7km/h 94% 0.01in /  0.25mm 0 W/m2
06:54 44.4 °F /  6.9 °C 42.8 °F /  6 °C 30.06in /  1017.8hPa East 4.8mph /  7.7km/h 11mph /  17.7km/h 94% 0.01in /  0.25mm 0 W/m2
06:59 44.4 °F /  6.9 °C 42.8 °F /  6 °C 30.06in /  1017.8hPa ESE 4.4mph /  7.1km/h 11mph /  17.7km/h 94% 0.01in /  0.25mm 0 W/m2
07:04 44.4 °F /  6.9 °C 42.8 °F /  6 °C 30.06in /  1017.8hPa ESE 4.2mph /  6.8km/h 11mph /  17.7km/h 94% 0.01in /  0.25mm 0 W/m2
07:09 44.4 °F /  6.9 °C 42.8 °F /  6 °C 30.06in /  1017.8hPa East 3.8mph /  6.1km/h 10mph /  16.1km/h 94% 0.01in /  0.25mm 0 W/m2
07:14 44.4 °F /  6.9 °C 42.8 °F /  6 °C 30.06in /  1017.8hPa East 4.5mph /  7.2km/h 10mph /  16.1km/h 94% 0.01in /  0.25mm 5 W/m2
07:19 44.4 °F /  6.9 °C 42.8 °F /  6 °C 30.06in /  1017.8hPa ESE 3.8mph /  6.1km/h 10mph /  16.1km/h 94% 0.01in /  0.25mm 7 W/m2
07:24 45 °F /  7.2 °C 43.4 °F /  6.3 °C 30.07in /  1018.2hPa ESE 3.7mph /  6km/h 10mph /  16.1km/h 94% 0.01in /  0.25mm 9 W/m2
07:29 44.9 °F /  7.2 °C 43.3 °F /  6.3 °C 30.06in /  1017.8hPa East 4.2mph /  6.8km/h 10mph /  16.1km/h 94% 0.01in /  0.25mm 11 W/m2
07:34 44.6 °F /  7 °C 43 °F /  6.1 °C 30.07in /  1018.2hPa ESE 3.7mph /  6km/h 11mph /  17.7km/h 94% 0.01in /  0.25mm 14 W/m2
07:39 44.5 °F /  6.9 °C 42.9 °F /  6.1 °C 30.07in /  1018.2hPa East 4.3mph /  6.9km/h 10mph /  16.1km/h 94% 0.01in /  0.25mm 16 W/m2
07:44 44.6 °F /  7 °C 43 °F /  6.1 °C 30.07in /  1018.2hPa East 2.6mph /  4.2km/h 10mph /  16.1km/h 94% 0.01in /  0.25mm 19 W/m2
07:49 44.6 °F /  7 °C 43 °F /  6.1 °C 30.07in /  1018.2hPa ESE 2.5mph /  4km/h 10mph /  16.1km/h 94% 0.01in /  0.25mm 25 W/m2
07:54 44.6 °F /  7 °C 43 °F /  6.1 °C 30.07in /  1018.2hPa ESE 3.1mph /  5km/h 11mph /  17.7km/h 94% 0.00in /  0mm 32 W/m2
07:59 44.7 °F /  7.1 °C 43.1 °F /  6.2 °C 30.07in /  1018.2hPa ESE 3.9mph /  6.3km/h 12mph /  19.3km/h 94% 0.00in /  0mm 35 W/m2
08:04 44.8 °F /  7.1 °C 43.2 °F /  6.2 °C 30.07in /  1018.2hPa East 1.5mph /  2.4km/h 8mph /  12.9km/h 94% 0.00in /  0mm 35 W/m2
08:09 44.8 °F /  7.1 °C 43.2 °F /  6.2 °C 30.08in /  1018.5hPa East 4.3mph /  6.9km/h 9mph /  14.5km/h 94% 0.00in /  0mm 35 W/m2
08:14 44.8 °F /  7.1 °C 43.2 °F /  6.2 °C 30.08in /  1018.5hPa East 1.6mph /  2.6km/h 9mph /  14.5km/h 94% 0.00in /  0mm 35 W/m2
08:19 44.8 °F /  7.1 °C 43.2 °F /  6.2 °C 30.08in /  1018.5hPa ESE 3.5mph /  5.6km/h 8mph /  12.9km/h 94% 0.00in /  0mm 39 W/m2
08:24 44.8 °F /  7.1 °C 43.2 °F /  6.2 °C 30.08in /  1018.5hPa ESE 4.4mph /  7.1km/h 10mph /  16.1km/h 94% 0.00in /  0mm 40 W/m2
08:29 44.8 °F /  7.1 °C 43.2 °F /  6.2 °C 30.08in /  1018.5hPa ESE 2.6mph /  4.2km/h 8mph /  12.9km/h 94% 0.00in /  0mm 42 W/m2
08:34 44.9 °F /  7.2 °C 43.3 °F /  6.3 °C 30.08in /  1018.5hPa East 3mph /  4.8km/h 9mph /  14.5km/h 94% 0.00in /  0mm 42 W/m2
08:39 45 °F /  7.2 °C 43.3 °F /  6.3 °C 30.08in /  1018.5hPa ESE 3.6mph /  5.8km/h 8mph /  12.9km/h 94% 0.00in /  0mm 44 W/m2
08:44 45 °F /  7.2 °C 43.3 °F /  6.3 °C 30.08in /  1018.5hPa ESE 3mph /  4.8km/h 9mph /  14.5km/h 94% 0.00in /  0mm 44 W/m2
08:49 45 °F /  7.2 °C 43.3 °F /  6.3 °C 30.08in /  1018.5hPa ESE 4.2mph /  6.8km/h 9mph /  14.5km/h 94% 0.00in /  0mm 44 W/m2
08:54 45 °F /  7.2 °C 43.3 °F /  6.3 °C 30.08in /  1018.5hPa ESE 2.7mph /  4.3km/h 11mph /  17.7km/h 94% 0.00in /  0mm 40 W/m2
08:59 45 °F /  7.2 °C 43.4 °F /  6.3 °C 30.08in /  1018.5hPa ESE 3.4mph /  5.5km/h 11mph /  17.7km/h 94% 0.00in /  0mm 42 W/m2
09:04 45.1 °F /  7.3 °C 43.4 °F /  6.3 °C 30.08in /  1018.5hPa ESE 3.7mph /  6km/h 10mph /  16.1km/h 94% 0.00in /  0mm 47 W/m2
09:09 45.1 °F /  7.3 °C 43.3 °F /  6.3 °C 30.08in /  1018.5hPa SE 2.9mph /  4.7km/h 7mph /  11.3km/h 93.7% 0.00in /  0mm 58 W/m2
09:14 45.1 °F /  7.3 °C 43.5 °F /  6.4 °C 30.07in /  1018.2hPa ESE 2.4mph /  3.9km/h 9mph /  14.5km/h 94% 0.00in /  0mm 70 W/m2
09:19 45.2 °F /  7.3 °C 43.6 °F /  6.4 °C 30.07in /  1018.2hPa East 2.6mph /  4.2km/h 9mph /  14.5km/h 94% 0.00in /  0mm 84 W/m2
09:24 45.3 °F /  7.4 °C 43.7 °F /  6.5 °C 30.07in /  1018.2hPa ESE 2.8mph /  4.5km/h 8mph /  12.9km/h 94% 0.00in /  0mm 88 W/m2
09:29 45.3 °F /  7.4 °C 43.7 °F /  6.5 °C 30.08in /  1018.5hPa ESE 4.6mph /  7.4km/h 10mph /  16.1km/h 94% 0.00in /  0mm 86 W/m2
09:34 45.3 °F /  7.4 °C 43.7 °F /  6.5 °C 30.08in /  1018.5hPa ESE 3.1mph /  5km/h 10mph /  16.1km/h 94% 0.00in /  0mm 86 W/m2
09:39 45.4 °F /  7.4 °C 43.7 °F /  6.5 °C 30.08in /  1018.5hPa ESE 3.8mph /  6.1km/h 8mph /  12.9km/h 93.8% 0.00in /  0mm 81 W/m2
09:44 45.5 °F /  7.5 °C 43.5 °F /  6.4 °C 30.08in /  1018.5hPa ESE 3.9mph /  6.3km/h 10mph /  16.1km/h 93.1% 0.00in /  0mm 79 W/m2
09:49 45.7 °F /  7.6 °C 43.8 °F /  6.6 °C 30.08in /  1018.5hPa ESE 2.7mph /  4.3km/h 9mph /  14.5km/h 93.2% 0.00in /  0mm 76 W/m2
09:54 45.7 °F /  7.6 °C 44 °F /  6.7 °C 30.08in /  1018.5hPa ESE 2.9mph /  4.7km/h 7mph /  11.3km/h 93.7% 0.00in /  0mm 81 W/m2
09:59 45.8 °F /  7.7 °C 44.1 °F /  6.7 °C 30.08in /  1018.5hPa ESE 3.1mph /  5km/h 8mph /  12.9km/h 94% 0.00in /  0mm 88 W/m2
10:04 45.9 °F /  7.7 °C 44.1 °F /  6.7 °C 30.08in /  1018.5hPa ESE 3.6mph /  5.8km/h 8mph /  12.9km/h 93.7% 0.00in /  0mm 90 W/m2
10:09 45.9 °F /  7.7 °C 44 °F /  6.7 °C 30.09in /  1018.8hPa East 2.4mph /  3.9km/h 7mph /  11.3km/h 93% 0.00in /  0mm 90 W/m2
10:14 46 °F /  7.8 °C 44.1 °F /  6.7 °C 30.09in /  1018.8hPa ESE 3.2mph /  5.1km/h 8mph /  12.9km/h 93% 0.00in /  0mm 83 W/m2
10:19 46.1 °F /  7.8 °C 44.1 °F /  6.7 °C 30.09in /  1018.8hPa East 1.5mph /  2.4km/h 5mph /  8km/h 93% 0.00in /  0mm 76 W/m2
10:24 46.2 °F /  7.9 °C 44.2 °F /  6.8 °C 30.08in /  1018.5hPa ESE 2.6mph /  4.2km/h 9mph /  14.5km/h 93% 0.00in /  0mm 83 W/m2
10:29 46.2 °F /  7.9 °C 44.2 °F /  6.8 °C 30.08in /  1018.5hPa ESE 2mph /  3.2km/h 9mph /  14.5km/h 93% 0.00in /  0mm 88 W/m2
10:34 46.2 °F /  7.9 °C 44.2 °F /  6.8 °C 30.09in /  1018.8hPa East 2mph /  3.2km/h 7mph /  11.3km/h 93% 0.00in /  0mm 91 W/m2
10:39 46.4 °F /  8 °C 44.4 °F /  6.9 °C 30.09in /  1018.8hPa ESE 2.9mph /  4.7km/h 7mph /  11.3km/h 93% 0.00in /  0mm 90 W/m2
10:44 46.6 °F /  8.1 °C 44.6 °F /  7 °C 30.09in /  1018.8hPa SE 1.4mph /  2.3km/h 7mph /  11.3km/h 93% 0.00in /  0mm 84 W/m2
10:49 46.6 °F /  8.1 °C 44.6 °F /  7 °C 30.09in /  1018.8hPa ESE 2.1mph /  3.4km/h 7mph /  11.3km/h 93% 0.00in /  0mm 86 W/m2
10:54 46.7 °F /  8.2 °C 44.7 °F /  7.1 °C 30.09in /  1018.8hPa East 2.8mph /  4.5km/h 9mph /  14.5km/h 93% 0.00in /  0mm 95 W/m2
10:59 46.8 °F /  8.2 °C 44.8 °F /  7.1 °C 30.09in /  1018.8hPa ESE 2.4mph /  3.9km/h 8mph /  12.9km/h 93% 0.00in /  0mm 98 W/m2
11:04 46.9 °F /  8.3 °C 44.9 °F /  7.2 °C 30.09in /  1018.8hPa ESE 2.4mph /  3.9km/h 7mph /  11.3km/h 93% 0.00in /  0mm 128 W/m2
11:09 47 °F /  8.3 °C 45.1 °F /  7.3 °C 30.08in /  1018.5hPa ESE 2.9mph /  4.7km/h 7mph /  11.3km/h 93% 0.00in /  0mm 139 W/m2
11:14 47.1 °F /  8.4 °C 45.1 °F /  7.3 °C 30.08in /  1018.5hPa ESE 4.3mph /  6.9km/h 10mph /  16.1km/h 93% 0.00in /  0mm 139 W/m2
11:19 47.3 °F /  8.5 °C 45.3 °F /  7.4 °C 30.08in /  1018.5hPa ESE 3.4mph /  5.5km/h 9mph /  14.5km/h 93% 0.00in /  0mm 128 W/m2
11:24 47.4 °F /  8.6 °C 45.4 °F /  7.4 °C 30.08in /  1018.5hPa ESE 2.7mph /  4.3km/h 9mph /  14.5km/h 93% 0.00in /  0mm 118 W/m2
11:29 47.5 °F /  8.6 °C 45.5 °F /  7.5 °C 30.08in /  1018.5hPa ESE 1.8mph /  2.9km/h 11mph /  17.7km/h 93% 0.00in /  0mm 107 W/m2
11:34 47.5 °F /  8.6 °C 45.5 °F /  7.5 °C 30.08in /  1018.5hPa ESE 1.8mph /  2.9km/h 8mph /  12.9km/h 93% 0.00in /  0mm 104 W/m2
11:39 47.7 °F /  8.7 °C 45.7 °F /  7.6 °C 30.08in /  1018.5hPa ESE 2.8mph /  4.5km/h 8mph /  12.9km/h 93% 0.00in /  0mm 102 W/m2
11:44 47.7 °F /  8.7 °C 45.7 °F /  7.6 °C 30.07in /  1018.2hPa ESE 3.2mph /  5.1km/h 8mph /  12.9km/h 93% 0.00in /  0mm 113 W/m2
11:49 47.7 °F /  8.7 °C 45.8 °F /  7.7 °C 30.07in /  1018.2hPa ESE 2mph /  3.2km/h 7mph /  11.3km/h 93% 0.00in /  0mm 120 W/m2
11:54 47.8 °F /  8.8 °C 45.7 °F /  7.6 °C 30.07in /  1018.2hPa ESE 3.5mph /  5.6km/h 8mph /  12.9km/h 92% 0.00in /  0mm 120 W/m2
11:59 47.8 °F /  8.8 °C 45.7 °F /  7.6 °C 30.07in /  1018.2hPa ESE 1.7mph /  2.7km/h 6mph /  9.7km/h 92% 0.00in /  0mm 102 W/m2
12:04 47.9 °F /  8.8 °C 45.8 °F /  7.7 °C 30.07in /  1018.2hPa ESE 2mph /  3.2km/h 7mph /  11.3km/h 92% 0.00in /  0mm 97 W/m2
12:09 47.8 °F /  8.8 °C 45.7 °F /  7.6 °C 30.07in /  1018.2hPa ESE 2.7mph /  4.3km/h 9mph /  14.5km/h 92% 0.00in /  0mm 95 W/m2
12:14 47.9 °F /  8.8 °C 45.8 °F /  7.7 °C 30.07in /  1018.2hPa ESE 3.4mph /  5.5km/h 10mph /  16.1km/h 92% 0.00in /  0mm 105 W/m2
12:19 48 °F /  8.9 °C 45.9 °F /  7.7 °C 30.07in /  1018.2hPa ESE 2.7mph /  4.3km/h 10mph /  16.1km/h 92% 0.00in /  0mm 105 W/m2
12:24 48 °F /  8.9 °C 45.9 °F /  7.7 °C 30.07in /  1018.2hPa SE 2.2mph /  3.5km/h 7mph /  11.3km/h 92% 0.00in /  0mm 88 W/m2
12:29 48.2 °F /  9 °C 46 °F /  7.8 °C 30.07in /  1018.2hPa ESE 2.8mph /  4.5km/h 7mph /  11.3km/h 92% 0.00in /  0mm 79 W/m2
12:34 48.2 °F /  9 °C 46 °F /  7.8 °C 30.07in /  1018.2hPa East 2.3mph /  3.7km/h 7mph /  11.3km/h 92% 0.00in /  0mm 74 W/m2
12:39 48.4 °F /  9.1 °C 46.2 °F /  7.9 °C 30.07in /  1018.2hPa ESE 1.9mph /  3.1km/h 7mph /  11.3km/h 92% 0.00in /  0mm 72 W/m2
12:44 48.4 °F /  9.1 °C 46.2 °F /  7.9 °C 30.07in /  1018.2hPa ESE 2.6mph /  4.2km/h 6mph /  9.7km/h 92% 0.00in /  0mm 67 W/m2
12:49 48.4 °F /  9.1 °C 46.2 °F /  7.9 °C 30.07in /  1018.2hPa ESE 2mph /  3.2km/h 5mph /  8km/h 92% 0.00in /  0mm 74 W/m2
12:54 48.6 °F /  9.2 °C 46.4 °F /  8 °C 30.07in /  1018.2hPa ESE 2.5mph /  4km/h 7mph /  11.3km/h 92% 0.00in /  0mm 88 W/m2
12:59 48.6 °F /  9.2 °C 46.4 °F /  8 °C 30.07in /  1018.2hPa ESE 0.8mph /  1.3km/h 7mph /  11.3km/h 92% 0.00in /  0mm 84 W/m2
13:04 48.6 °F /  9.2 °C 46.5 °F /  8.1 °C 30.07in /  1018.2hPa SE 1.4mph /  2.3km/h 6mph /  9.7km/h 92% 0.00in /  0mm 100 W/m2
13:09 48.8 °F /  9.3 °C 46.7 °F /  8.2 °C 30.07in /  1018.2hPa SE 1.7mph /  2.7km/h 5mph /  8km/h 92% 0.00in /  0mm 104 W/m2
13:14 48.9 °F /  9.4 °C 46.8 °F /  8.2 °C 30.06in /  1017.8hPa SE 1.4mph /  2.3km/h 6mph /  9.7km/h 92% 0.00in /  0mm 95 W/m2
13:19 48.9 °F /  9.4 °C 46.8 °F /  8.2 °C 30.06in /  1017.8hPa ESE 1.6mph /  2.6km/h 5mph /  8km/h 92% 0.00in /  0mm 97 W/m2
13:24 49 °F /  9.4 °C 46.9 °F /  8.3 °C 30.06in /  1017.8hPa East 0.5mph /  0.8km/h 5mph /  8km/h 92% 0.00in /  0mm 84 W/m2
13:29 49.3 °F /  9.6 °C 47.1 °F /  8.4 °C 30.06in /  1017.8hPa ESE 1.3mph /  2.1km/h 5mph /  8km/h 92% 0.00in /  0mm 97 W/m2
13:34 49.2 °F /  9.6 °C 47 °F /  8.3 °C 30.06in /  1017.8hPa ESE 2.7mph /  4.3km/h 8mph /  12.9km/h 92% 0.00in /  0mm 109 W/m2
13:39 49.3 °F /  9.6 °C 47.1 °F /  8.4 °C 30.06in /  1017.8hPa ESE 2.3mph /  3.7km/h 7mph /  11.3km/h 92% 0.00in /  0mm 111 W/m2
13:44 49.3 °F /  9.6 °C 47.1 °F /  8.4 °C 30.06in /  1017.8hPa ESE 1.8mph /  2.9km/h 6mph /  9.7km/h 92% 0.00in /  0mm 111 W/m2
13:49 49.3 °F /  9.6 °C 47.1 °F /  8.4 °C 30.05in /  1017.5hPa ESE 2.2mph /  3.5km/h 7mph /  11.3km/h 92% 0.00in /  0mm 102 W/m2
13:54 49.3 °F /  9.6 °C 47.1 °F /  8.4 °C 30.05in /  1017.5hPa East 2.4mph /  3.9km/h 7mph /  11.3km/h 92% 0.00in /  0mm 98 W/m2
13:59 49.3 °F /  9.6 °C 47.1 °F /  8.4 °C 30.05in /  1017.5hPa ESE 3.7mph /  6km/h 9mph /  14.5km/h 92% 0.00in /  0mm 97 W/m2
14:04 49.3 °F /  9.6 °C 47.1 °F /  8.4 °C 30.05in /  1017.5hPa ESE 3.4mph /  5.5km/h 9mph /  14.5km/h 92% 0.00in /  0mm 97 W/m2
14:09 49.3 °F /  9.6 °C 47.1 °F /  8.4 °C 30.05in /  1017.5hPa ESE 2.8mph /  4.5km/h 9mph /  14.5km/h 92% 0.00in /  0mm 90 W/m2
14:14 49.3 °F /  9.6 °C 47.1 °F /  8.4 °C 30.05in /  1017.5hPa ESE 4.5mph /  7.2km/h 8mph /  12.9km/h 92% 0.00in /  0mm 93 W/m2
14:19 49.3 °F /  9.6 °C 47.1 °F /  8.4 °C 30.05in /  1017.5hPa ESE 2.3mph /  3.7km/h 8mph /  12.9km/h 92% 0.00in /  0mm 105 W/m2
14:24 49.4 °F /  9.7 °C 47.2 °F /  8.4 °C 30.05in /  1017.5hPa ESE 2.4mph /  3.9km/h 8mph /  12.9km/h 92% 0.00in /  0mm 123 W/m2
14:29 49.5 °F /  9.7 °C 47.3 °F /  8.5 °C 30.04in /  1017.2hPa ESE 2.9mph /  4.7km/h 8mph /  12.9km/h 92% 0.00in /  0mm 123 W/m2
14:34 49.5 °F /  9.7 °C 47.3 °F /  8.5 °C 30.04in /  1017.2hPa ESE 3.7mph /  6km/h 8mph /  12.9km/h 92% 0.00in /  0mm 70 W/m2
14:39 49.5 °F /  9.7 °C 47.3 °F /  8.5 °C 30.04in /  1017.2hPa ESE 2.9mph /  4.7km/h 8mph /  12.9km/h 92% 0.00in /  0mm 46 W/m2
14:44 49.5 °F /  9.7 °C 47.3 °F /  8.5 °C 30.04in /  1017.2hPa ESE 2.9mph /  4.7km/h 8mph /  12.9km/h 92% 0.00in /  0mm 49 W/m2
14:49 49.5 °F /  9.7 °C 47.4 °F /  8.6 °C 30.04in /  1017.2hPa SE 2mph /  3.2km/h 8mph /  12.9km/h 92% 0.00in /  0mm 49 W/m2
14:54 49.6 °F /  9.8 °C 47.5 °F /  8.6 °C 30.04in /  1017.2hPa SE 2.3mph /  3.7km/h 7mph /  11.3km/h 92% 0.00in /  0mm 46 W/m2
14:59 49.6 °F /  9.8 °C 47.5 °F /  8.6 °C 30.04in /  1017.2hPa ESE 1.9mph /  3.1km/h 5mph /  8km/h 92% 0.00in /  0mm 44 W/m2
15:04 49.6 °F /  9.8 °C 47.3 °F /  8.5 °C 30.04in /  1017.2hPa ESE 1.8mph /  2.9km/h 6mph /  9.7km/h 91.4% 0.00in /  0mm 28 W/m2
15:09 49.7 °F /  9.8 °C 47.2 °F /  8.4 °C 30.04in /  1017.2hPa SE 3.2mph /  5.1km/h 7mph /  11.3km/h 91% 0.00in /  0mm 26 W/m2
15:14 49.7 °F /  9.8 °C 47.2 °F /  8.4 °C 30.04in /  1017.2hPa ESE 2.1mph /  3.4km/h 8mph /  12.9km/h 91% 0.00in /  0mm 33 W/m2
15:19 49.7 °F /  9.8 °C 47.2 °F /  8.4 °C 30.04in /  1017.2hPa ESE 2.5mph /  4km/h 8mph /  12.9km/h 91% 0.00in /  0mm 33 W/m2
15:24 49.7 °F /  9.8 °C 47.2 °F /  8.4 °C 30.03in /  1016.8hPa SE 1.6mph /  2.6km/h 6mph /  9.7km/h 91% 0.00in /  0mm 28 W/m2
15:29 49.8 °F /  9.9 °C 47.3 °F /  8.5 °C 30.03in /  1016.8hPa SE 1.4mph /  2.3km/h 5mph /  8km/h 91% 0.00in /  0mm 28 W/m2
15:34 49.8 °F /  9.9 °C 47.3 °F /  8.5 °C 30.03in /  1016.8hPa ESE 2.8mph /  4.5km/h 7mph /  11.3km/h 91% 0.00in /  0mm 28 W/m2
15:39 49.8 °F /  9.9 °C 47.3 °F /  8.5 °C 30.03in /  1016.8hPa ESE 1.6mph /  2.6km/h 6mph /  9.7km/h 91% 0.00in /  0mm 21 W/m2
15:44 49.8 °F /  9.9 °C 47.3 °F /  8.5 °C 30.03in /  1016.8hPa ESE 1.3mph /  2.1km/h 5mph /  8km/h 91% 0.00in /  0mm 21 W/m2
15:49 49.8 °F /  9.9 °C 47.3 °F /  8.5 °C 30.03in /  1016.8hPa ESE 2.1mph /  3.4km/h 7mph /  11.3km/h 91% 0.00in /  0mm 19 W/m2
15:54 49.8 °F /  9.9 °C 47.3 °F /  8.5 °C 30.03in /  1016.8hPa East 1.9mph /  3.1km/h 7mph /  11.3km/h 91% 0.00in /  0mm 21 W/m2
15:59 49.8 °F /  9.9 °C 47.3 °F /  8.5 °C 30.03in /  1016.8hPa East 3.1mph /  5km/h 8mph /  12.9km/h 91% 0.00in /  0mm 14 W/m2
16:04 49.8 °F /  9.9 °C 47.3 °F /  8.5 °C 30.03in /  1016.8hPa East 2.9mph /  4.7km/h 7mph /  11.3km/h 91% 0.00in /  0mm 7 W/m2
16:09 49.8 °F /  9.9 °C 47.3 °F /  8.5 °C 30.02in /  1016.5hPa ESE 4.2mph /  6.8km/h 10mph /  16.1km/h 91% 0.00in /  0mm 7 W/m2
16:14 49.8 °F /  9.9 °C 47.3 °F /  8.5 °C 30.02in /  1016.5hPa East 4.9mph /  7.9km/h 10mph /  16.1km/h 91% 0.00in /  0mm 7 W/m2
16:19 49.8 °F /  9.9 °C 47.3 °F /  8.5 °C 30.02in /  1016.5hPa ESE 3.7mph /  6km/h 10mph /  16.1km/h 91% 0.00in /  0mm 5 W/m2
16:24 49.9 °F /  9.9 °C 47.4 °F /  8.6 °C 30.02in /  1016.5hPa ENE 3.1mph /  5km/h 8mph /  12.9km/h 91% 0.00in /  0mm 0 W/m2
16:29 49.9 °F /  9.9 °C 47.4 °F /  8.6 °C 30.02in /  1016.5hPa ENE 0.8mph /  1.3km/h 4mph /  6.4km/h 91% 0.00in /  0mm 0 W/m2
16:34 49.8 °F /  9.9 °C 47.3 °F /  8.5 °C 30.02in /  1016.5hPa ENE 1.3mph /  2.1km/h 6mph /  9.7km/h 91% 0.00in /  0mm 0 W/m2
16:39 49.8 °F /  9.9 °C 47.3 °F /  8.5 °C 30.02in /  1016.5hPa ENE 2.2mph /  3.5km/h 6mph /  9.7km/h 91% 0.00in /  0mm 0 W/m2
16:44 49.8 °F /  9.9 °C 47.3 °F /  8.5 °C 30.02in /  1016.5hPa East 1.4mph /  2.3km/h 7mph /  11.3km/h 91% 0.00in /  0mm 0 W/m2
16:49 49.8 °F /  9.9 °C 47.3 °F /  8.5 °C 30.02in /  1016.5hPa ESE 1.2mph /  1.9km/h 7mph /  11.3km/h 91% 0.00in /  0mm 0 W/m2
16:54 49.9 °F /  9.9 °C 47.4 °F /  8.6 °C 30.02in /  1016.5hPa SE 1.8mph /  2.9km/h 5mph /  8km/h 91% 0.00in /  0mm 0 W/m2
16:59 50 °F /  10 °C 47.5 °F /  8.6 °C 30.02in /  1016.5hPa SE 0.7mph /  1.1km/h 3mph /  4.8km/h 91% 0.00in /  0mm 0 W/m2
17:04 50 °F /  10 °C 47.5 °F /  8.6 °C 30.02in /  1016.5hPa SE 1.6mph /  2.6km/h 4mph /  6.4km/h 91% 0.00in /  0mm 0 W/m2
17:09 50 °F /  10 °C 47.5 °F /  8.6 °C 30.02in /  1016.5hPa SE 2mph /  3.2km/h 6mph /  9.7km/h 91% 0.00in /  0mm 0 W/m2
17:14 50.1 °F /  10.1 °C 47.6 °F /  8.7 °C 30.01in /  1016.1hPa SE 2.4mph /  3.9km/h 7mph /  11.3km/h 91% 0.00in /  0mm 0 W/m2
17:19 50.1 °F /  10.1 °C 47.6 °F /  8.7 °C 30.02in /  1016.5hPa ESE 3mph /  4.8km/h 8mph /  12.9km/h 91% 0.00in /  0mm 0 W/m2
17:24 50.2 °F /  10.1 °C 47.7 °F /  8.7 °C 30.02in /  1016.5hPa ESE 1.8mph /  2.9km/h 7mph /  11.3km/h 91% 0.00in /  0mm 0 W/m2
17:29 50.2 °F /  10.1 °C 47.7 °F /  8.7 °C 30.02in /  1016.5hPa ESE 3.2mph /  5.1km/h 8mph /  12.9km/h 91% 0.00in /  0mm 0 W/m2
17:34 50.2 °F /  10.1 °C 47.7 °F /  8.7 °C 30.02in /  1016.5hPa ESE 0.6mph /  1km/h 8mph /  12.9km/h 91% 0.00in /  0mm 0 W/m2
17:39 50.1 °F /  10.1 °C 47.6 °F /  8.7 °C 30.02in /  1016.5hPa ESE 1.2mph /  1.9km/h 5mph /  8km/h 91% 0.00in /  0mm 0 W/m2
17:44 50 °F /  10 °C 47.5 °F /  8.6 °C 30.02in /  1016.5hPa ESE 0.8mph /  1.3km/h 7mph /  11.3km/h 91% 0.00in /  0mm 0 W/m2
17:49 50.1 °F /  10.1 °C 47.6 °F /  8.7 °C 30.01in /  1016.1hPa East 1.2mph /  1.9km/h 7mph /  11.3km/h 91% 0.00in /  0mm 0 W/m2
17:54 50 °F /  10 °C 47.5 °F /  8.6 °C 30.01in /  1016.1hPa East 1mph /  1.6km/h 5mph /  8km/h 91% 0.01in /  0.25mm 0 W/m2
17:59 50 °F /  10 °C 47.5 °F /  8.6 °C 30.01in /  1016.1hPa East 0.9mph /  1.4km/h 6mph /  9.7km/h 91% 0.01in /  0.25mm 0 W/m2
18:04 50 °F /  10 °C 47.7 °F /  8.7 °C 30.01in /  1016.1hPa East 2.3mph /  3.7km/h 5mph /  8km/h 91.8% 0.01in /  0.25mm 0 W/m2
18:09 50 °F /  10 °C 47.8 °F /  8.8 °C 30.01in /  1016.1hPa ESE 0.9mph /  1.4km/h 5mph /  8km/h 92% 0.01in /  0.25mm 0 W/m2
18:14 50 °F /  10 °C 47.8 °F /  8.8 °C 30.01in /  1016.1hPa East 2.2mph /  3.5km/h 8mph /  12.9km/h 92% 0.01in /  0.25mm 0 W/m2
18:19 50 °F /  10 °C 47.8 °F /  8.8 °C 30.00in /  1015.8hPa ESE 2.6mph /  4.2km/h 7mph /  11.3km/h 92% 0.01in /  0.25mm 0 W/m2
18:24 49.8 °F /  9.9 °C 47.7 °F /  8.7 °C 30.00in /  1015.8hPa East 2.2mph /  3.5km/h 8mph /  12.9km/h 92% 0.01in /  0.25mm 0 W/m2
18:29 49.8 °F /  9.9 °C 47.7 °F /  8.7 °C 30.00in /  1015.8hPa East 0.4mph /  0.6km/h 5mph /  8km/h 92% 0.01in /  0.25mm 0 W/m2
18:34 49.8 °F /  9.9 °C 47.7 °F /  8.7 °C 30.00in /  1015.8hPa East 1.2mph /  1.9km/h 5mph /  8km/h 92% 0.01in /  0.25mm 0 W/m2
18:39 49.8 °F /  9.9 °C 47.7 °F /  8.7 °C 30.00in /  1015.8hPa ENE 0.2mph /  0.3km/h 2mph /  3.2km/h 92% 0.02in /  0.51mm 0 W/m2
18:44 49.8 °F /  9.9 °C 47.7 °F /  8.7 °C 30.00in /  1015.8hPa East 0.7mph /  1.1km/h 3mph /  4.8km/h 92% 0.02in /  0.51mm 0 W/m2
18:49 49.8 °F /  9.9 °C 47.7 °F /  8.7 °C 30.00in /  1015.8hPa East 1.3mph /  2.1km/h 4mph /  6.4km/h 92% 0.02in /  0.51mm 0 W/m2
18:54 49.8 °F /  9.9 °C 47.7 °F /  8.7 °C 30.00in /  1015.8hPa East 1.6mph /  2.6km/h 7mph /  11.3km/h 92% 0.02in /  0.51mm 0 W/m2
18:59 49.8 °F /  9.9 °C 47.7 °F /  8.7 °C 29.99in /  1015.5hPa ESE 1.4mph /  2.3km/h 7mph /  11.3km/h 92.2% 0.01in /  0.25mm 0 W/m2
19:04 49.8 °F /  9.9 °C 47.8 °F /  8.8 °C 29.99in /  1015.5hPa ESE 1.2mph /  1.9km/h 5mph /  8km/h 93% 0.01in /  0.25mm 0 W/m2
19:09 49.8 °F /  9.9 °C 47.8 °F /  8.8 °C 29.98in /  1015.1hPa ESE 1.4mph /  2.3km/h 8mph /  12.9km/h 93% 0.01in /  0.25mm 0 W/m2
19:14 49.8 °F /  9.9 °C 47.8 °F /  8.8 °C 29.98in /  1015.1hPa ENE 2.6mph /  4.2km/h 8mph /  12.9km/h 93% 0.01in /  0.25mm 0 W/m2
19:19 49.8 °F /  9.9 °C 47.8 °F /  8.8 °C 29.98in /  1015.1hPa ESE 1.3mph /  2.1km/h 8mph /  12.9km/h 93% 0.01in /  0.25mm 0 W/m2
19:24 49.7 °F /  9.8 °C 47.8 °F /  8.8 °C 29.97in /  1014.8hPa ESE 3mph /  4.8km/h 7mph /  11.3km/h 93% 0.01in /  0.25mm 0 W/m2
19:29 49.7 °F /  9.8 °C 47.7 °F /  8.7 °C 29.97in /  1014.8hPa ESE 3.4mph /  5.5km/h 8mph /  12.9km/h 93% 0.01in /  0.25mm 0 W/m2
19:34 49.7 °F /  9.8 °C 47.7 °F /  8.7 °C 29.97in /  1014.8hPa SE 3.4mph /  5.5km/h 9mph /  14.5km/h 93% 0.01in /  0.25mm 0 W/m2
19:39 49.6 °F /  9.8 °C 47.7 °F /  8.7 °C 29.97in /  1014.8hPa SE 4.6mph /  7.4km/h 10mph /  16.1km/h 93% 0.01in /  0.25mm 0 W/m2
19:44 49.7 °F /  9.8 °C 47.7 °F /  8.7 °C 29.97in /  1014.8hPa SE 5mph /  8km/h 9mph /  14.5km/h 93% 0.00in /  0mm 0 W/m2
19:49 49.7 °F /  9.8 °C 47.8 °F /  8.8 °C 29.97in /  1014.8hPa SE 4.3mph /  6.9km/h 10mph /  16.1km/h 93% 0.00in /  0mm 0 W/m2
19:54 49.7 °F /  9.8 °C 47.8 °F /  8.8 °C 29.96in /  1014.4hPa SE 4.4mph /  7.1km/h 10mph /  16.1km/h 93% 0.00in /  0mm 0 W/m2
19:59 49.8 °F /  9.9 °C 47.8 °F /  8.8 °C 29.96in /  1014.4hPa SE 4.3mph /  6.9km/h 10mph /  16.1km/h 93% 0.00in /  0mm 0 W/m2
20:04 49.8 °F /  9.9 °C 47.8 °F /  8.8 °C 29.96in /  1014.4hPa SE 4.2mph /  6.8km/h 11mph /  17.7km/h 93% 0.00in /  0mm 0 W/m2
20:09 49.8 °F /  9.9 °C 47.9 °F /  8.8 °C 29.96in /  1014.4hPa SSE 4.2mph /  6.8km/h 11mph /  17.7km/h 93.2% 0.00in /  0mm 0 W/m2
20:14 49.8 °F /  9.9 °C 48.2 °F /  9 °C 29.96in /  1014.4hPa SSE 4.3mph /  6.9km/h 9mph /  14.5km/h 94% 0.00in /  0mm 0 W/m2
20:19 49.8 °F /  9.9 °C 48.2 °F /  9 °C 29.96in /  1014.4hPa SE 5.9mph /  9.5km/h 13mph /  20.9km/h 94% 0.00in /  0mm 0 W/m2
20:24 49.8 °F /  9.9 °C 48.2 °F /  9 °C 29.96in /  1014.4hPa SSE 4.7mph /  7.6km/h 10mph /  16.1km/h 94% 0.00in /  0mm 0 W/m2
20:29 49.8 °F /  9.9 °C 48.2 °F /  9 °C 29.96in /  1014.4hPa SSE 4.8mph /  7.7km/h 11mph /  17.7km/h 94% 0.00in /  0mm 0 W/m2
20:34 49.9 °F /  9.9 °C 48.3 °F /  9.1 °C 29.95in /  1014.1hPa SSE 5mph /  8km/h 11mph /  17.7km/h 94% 0.00in /  0mm 0 W/m2
20:39 50 °F /  10 °C 48.4 °F /  9.1 °C 29.95in /  1014.1hPa SE 3.9mph /  6.3km/h 9mph /  14.5km/h 94% 0.00in /  0mm 0 W/m2
20:44 50 °F /  10 °C 48.4 °F /  9.1 °C 29.95in /  1014.1hPa SE 4.8mph /  7.7km/h 9mph /  14.5km/h 94% 0.00in /  0mm 0 W/m2
20:49 50 °F /  10 °C 48.4 °F /  9.1 °C 29.95in /  1014.1hPa SSE 3.9mph /  6.3km/h 11mph /  17.7km/h 94% 0.00in /  0mm 0 W/m2
20:54 50.1 °F /  10.1 °C 48.5 °F /  9.2 °C 29.95in /  1014.1hPa SE 3.6mph /  5.8km/h 11mph /  17.7km/h 94% 0.00in /  0mm 0 W/m2
20:59 50.2 °F /  10.1 °C 48.6 °F /  9.2 °C 29.94in /  1013.8hPa SE 4.7mph /  7.6km/h 9mph /  14.5km/h 94% 0.00in /  0mm 0 W/m2
21:04 50.2 °F /  10.1 °C 48.6 °F /  9.2 °C 29.94in /  1013.8hPa SE 4.2mph /  6.8km/h 9mph /  14.5km/h 94% 0.00in /  0mm 0 W/m2
21:09 50.2 °F /  10.1 °C 48.6 °F /  9.2 °C 29.94in /  1013.8hPa SE 3.8mph /  6.1km/h 10mph /  16.1km/h 94% 0.00in /  0mm 0 W/m2
21:14 50.2 °F /  10.1 °C 48.6 °F /  9.2 °C 29.93in /  1013.4hPa SSE 2.5mph /  4km/h 10mph /  16.1km/h 94% 0.00in /  0mm 0 W/m2
21:19 50.2 °F /  10.1 °C 48.6 °F /  9.2 °C 29.93in /  1013.4hPa SE 3.6mph /  5.8km/h 9mph /  14.5km/h 94% 0.00in /  0mm 0 W/m2
21:24 50.2 °F /  10.1 °C 48.6 °F /  9.2 °C 29.93in /  1013.4hPa SE 4.7mph /  7.6km/h 10mph /  16.1km/h 94% 0.00in /  0mm 0 W/m2
21:29 50.2 °F /  10.1 °C 48.6 °F /  9.2 °C 29.93in /  1013.4hPa SE 5mph /  8km/h 10mph /  16.1km/h 94% 0.00in /  0mm 0 W/m2
21:34 50.2 °F /  10.1 °C 48.6 °F /  9.2 °C 29.92in /  1013.1hPa SE 4.6mph /  7.4km/h 11mph /  17.7km/h 94% 0.00in /  0mm 0 W/m2
21:39 50.2 °F /  10.1 °C 48.6 °F /  9.2 °C 29.92in /  1013.1hPa SE 5.2mph /  8.4km/h 11mph /  17.7km/h 94% 0.00in /  0mm 0 W/m2
21:44 50.2 °F /  10.1 °C 48.6 °F /  9.2 °C 29.91in /  1012.8hPa SE 3.7mph /  6km/h 8mph /  12.9km/h 94% 0.00in /  0mm 0 W/m2
21:49 50.2 °F /  10.1 °C 48.6 °F /  9.2 °C 29.91in /  1012.8hPa SE 3.6mph /  5.8km/h 10mph /  16.1km/h 94% 0.00in /  0mm 0 W/m2
21:54 50.2 °F /  10.1 °C 48.6 °F /  9.2 °C 29.91in /  1012.8hPa ESE 2.8mph /  4.5km/h 6mph /  9.7km/h 94% 0.01in /  0.25mm 0 W/m2
21:59 50.2 °F /  10.1 °C 48.6 °F /  9.2 °C 29.91in /  1012.8hPa ESE 2.5mph /  4km/h 7mph /  11.3km/h 94% 0.01in /  0.25mm 0 W/m2
22:04 50.2 °F /  10.1 °C 48.6 °F /  9.2 °C 29.91in /  1012.8hPa SE 3.4mph /  5.5km/h 7mph /  11.3km/h 94.3% 0.01in /  0.25mm 0 W/m2
22:09 50.3 °F /  10.2 °C 48.7 °F /  9.3 °C 29.91in /  1012.8hPa SE 3mph /  4.8km/h 7mph /  11.3km/h 94.6% 0.01in /  0.25mm 0 W/m2
22:14 50.3 °F /  10.2 °C 48.8 °F /  9.3 °C 29.90in /  1012.4hPa ESE 3.8mph /  6.1km/h 8mph /  12.9km/h 95% 0.01in /  0.25mm 0 W/m2
22:19 50.4 °F /  10.2 °C 48.9 °F /  9.4 °C 29.90in /  1012.4hPa SE 2.9mph /  4.7km/h 8mph /  12.9km/h 95% 0.01in /  0.25mm 0 W/m2
22:24 50.4 °F /  10.2 °C 48.8 °F /  9.3 °C 29.90in /  1012.4hPa SE 2.9mph /  4.7km/h 6mph /  9.7km/h 94.4% 0.02in /  0.51mm 0 W/m2
22:29 50.4 °F /  10.2 °C 48.8 °F /  9.3 °C 29.89in /  1012.1hPa SE 2.7mph /  4.3km/h 7mph /  11.3km/h 94.3% 0.02in /  0.51mm 0 W/m2
22:34 50.4 °F /  10.2 °C 48.9 °F /  9.4 °C 29.89in /  1012.1hPa SE 3.3mph /  5.3km/h 8mph /  12.9km/h 94.8% 0.02in /  0.51mm 0 W/m2
22:39 50.4 °F /  10.2 °C 48.9 °F /  9.4 °C 29.89in /  1012.1hPa SE 3.1mph /  5km/h 8mph /  12.9km/h 95% 0.02in /  0.51mm 0 W/m2
22:44 50.4 °F /  10.2 °C 48.9 °F /  9.4 °C 29.88in /  1011.7hPa SE 4.1mph /  6.6km/h 10mph /  16.1km/h 95% 0.02in /  0.51mm 0 W/m2
22:49 50.4 °F /  10.2 °C 48.9 °F /  9.4 °C 29.88in /  1011.7hPa ESE 2.5mph /  4km/h 7mph /  11.3km/h 95% 0.02in /  0.51mm 0 W/m2
22:54 50.4 °F /  10.2 °C 48.9 °F /  9.4 °C 29.88in /  1011.7hPa ESE 3.9mph /  6.3km/h 9mph /  14.5km/h 95% 0.02in /  0.51mm 0 W/m2
22:59 50.4 °F /  10.2 °C 48.9 °F /  9.4 °C 29.88in /  1011.7hPa ESE 4mph /  6.4km/h 9mph /  14.5km/h 95% 0.02in /  0.51mm 0 W/m2
23:04 50.4 °F /  10.2 °C 48.9 °F /  9.4 °C 29.87in /  1011.4hPa East 3.1mph /  5km/h 9mph /  14.5km/h 95% 0.02in /  0.51mm 0 W/m2
23:09 50.5 °F /  10.3 °C 49 °F /  9.4 °C 29.87in /  1011.4hPa East 3.6mph /  5.8km/h 9mph /  14.5km/h 95% 0.02in /  0.51mm 0 W/m2
23:14 50.5 °F /  10.3 °C 49 °F /  9.4 °C 29.86in /  1011.1hPa ESE 2.3mph /  3.7km/h 7mph /  11.3km/h 95% 0.02in /  0.51mm 0 W/m2
23:19 50.5 °F /  10.3 °C 49 °F /  9.4 °C 29.86in /  1011.1hPa ESE 2.1mph /  3.4km/h 7mph /  11.3km/h 95% 0.02in /  0.51mm 0 W/m2
23:24 50.4 °F /  10.2 °C 49 °F /  9.4 °C 29.86in /  1011.1hPa ESE 2.6mph /  4.2km/h 7mph /  11.3km/h 95% 0.02in /  0.51mm 0 W/m2
23:29 50.5 °F /  10.3 °C 49 °F /  9.4 °C 29.86in /  1011.1hPa ESE 2mph /  3.2km/h 7mph /  11.3km/h 95% 0.02in /  0.51mm 0 W/m2
23:34 50.5 °F /  10.3 °C 49.1 °F /  9.5 °C 29.85in /  1010.7hPa East 1.6mph /  2.6km/h 7mph /  11.3km/h 95% 0.02in /  0.51mm 0 W/m2
23:39 50.5 °F /  10.3 °C 49.1 °F /  9.5 °C 29.85in /  1010.7hPa East 0.9mph /  1.4km/h 7mph /  11.3km/h 95% 0.02in /  0.51mm 0 W/m2
23:44 50.5 °F /  10.3 °C 49.1 °F /  9.5 °C 29.85in /  1010.7hPa East 1.8mph /  2.9km/h 7mph /  11.3km/h 95% 0.02in /  0.51mm 0 W/m2
23:49 50.5 °F /  10.3 °C 49.1 °F /  9.5 °C 29.85in /  1010.7hPa East 2.3mph /  3.7km/h 8mph /  12.9km/h 95% 0.02in /  0.51mm 0 W/m2
23:54 50.5 °F /  10.3 °C 49.1 °F /  9.5 °C 29.84in /  1010.4hPa ESE 0.4mph /  0.6km/h 8mph /  12.9km/h 95% 0.02in /  0.51mm 0 W/m2
23:59 50.5 °F /  10.3 °C 49.1 °F /  9.5 °C 29.84in /  1010.4hPa ESE 0.8mph /  1.3km/h 4mph /  6.4km/h 95% 0.02in /  0.51mm 0 W/m2
Bath Spa Weather
Compliments of Weather Underground - 2 mb